Flight Track Log - Related Links

Times and Time Zones

All times are in EDT time to prevent confusion due to time zone crossing. See the UPS1337 flight status page for this flight to view local times or setup timezone preferences in your user account.


Time Position Orientation Groundspeed Altitude Reporting Facility
EDT Latitude Longitude Course Direction KTS MPH feet Rate Location/Type
Fri 09:46:00 PM 27.9000 -82.6833 180° South 168 193 600  Level Tampa TRACON
Fri 09:47:01 PM 27.8500 -82.6833 180° South 200 230 3,000 2,182 Climbing Tampa TRACON
Fri 09:48:01 PM 27.8333 -82.7333 249° West 257 296 5,000 952 Climbing Tampa TRACON
Fri 09:49:07 PM 27.9000 -82.7667 336° Northwest 242 278 5,000 2,157 Level Tampa TRACON
Fri 09:56:05 PM 28.6004 -82.6431 359° North 455 524 22,400 2,388 Climbing FlightAware ADS-B
Fri 09:57:22 PM 28.7550 -82.6486 359° North 441 507 24,700 1,752 Climbing Jacksonville Center
Fri 09:58:22 PM 28.8864 -82.6508 359° North 453 521 26,400 1,900 Climbing Jacksonville Center
Fri 09:59:22 PM 29.0200 -82.6528 359° North 464 534 28,500 2,200 Climbing Jacksonville Center
Fri 10:00:22 PM 29.1514 -82.6547 359° North 469 540 30,800 1,950 Climbing Jacksonville Center
Fri 10:01:22 PM 29.2808 -82.6592 358° North 469 540 32,400 592 Climbing Jacksonville Center
Fri 10:07:28 PM 30.0729 -82.6769 359° North 457 526 35,000 386 Climbing FlightAware ADS-B
Fri 10:08:06 PM 30.1464 -82.6785 359° North 458 527 35,000 60 Level FlightAware ADS-B
Fri 10:09:08 PM 30.2820 -82.6429 19° North 463 533 35,100  Climbing FlightAware ADS-B
Fri 10:09:41 PM 30.3389 -82.6197 19° North 459 528 35,000 -81 Descending Miami Center
Fri 10:10:22 PM 30.4103 -82.5914 19° North 449 517 35,000  Level Jacksonville Center
Fri 10:11:22 PM 30.5311 -82.5381 21° North 449 517 35,000  Level Jacksonville Center
Fri 10:12:22 PM 30.6542 -82.4869 20° North 461 531 35,000  Level Jacksonville Center
Fri 10:13:22 PM 30.7753 -82.4356 20° North 461 531 35,000  Level Jacksonville Center
Fri 10:14:22 PM 30.8981 -82.3817 21° North 467 537 35,000 -50 Level Jacksonville Center
Fri 10:15:22 PM 31.0189 -82.3303 20° North 467 537 34,900 -50 Descending Jacksonville Center
Fri 10:16:22 PM 31.1378 -82.2786 20° North 467 537 34,900 50 Level Jacksonville Center
Fri 10:17:22 PM 31.2711 -82.2217 20° North 462 532 35,000 50 Climbing Jacksonville Center
Fri 10:18:22 PM 31.3919 -82.1722 19° North 462 532 35,000  Level Jacksonville Center
Fri 10:19:22 PM 31.5147 -82.1128 22° Northeast 465 535 35,000  Level Jacksonville Center
Fri 10:20:22 PM 31.6336 -82.0606 21° North 459 528 35,000  Level Jacksonville Center
Fri 10:21:22 PM 31.7439 -82.0131 20° North 464 534 35,000  Level Jacksonville Center
Fri 10:22:22 PM 31.8750 -81.9531 21° North 464 534 35,000  Level Jacksonville Center
Fri 10:23:22 PM 31.9956 -81.9006 20° North 464 534 35,000  Level Jacksonville Center
Fri 10:24:22 PM 32.1081 -81.8528 20° North 464 534 35,000  Level Jacksonville Center
Fri 10:25:22 PM 32.2433 -81.7947 20° North 464 534 35,000  Level Jacksonville Center
Fri 10:26:22 PM 32.3639 -81.7392 21° North 470 541 35,000  Level Jacksonville Center
Fri 10:27:22 PM 32.4761 -81.6883 21° North 470 541 35,000  Level Jacksonville Center
Fri 10:28:22 PM 32.6092 -81.6275 21° North 463 533 35,000  Level Jacksonville Center
Fri 10:29:22 PM 32.7275 -81.5617 25° Northeast 463 533 35,000  Level Jacksonville Center
Fri 10:30:22 PM 32.8331 -81.4783 34° Northeast 458 527 35,000  Level Jacksonville Center
Fri 10:35:40 PM 33.4227 -81.0203 33° Northeast 468 539 35,000  Level FlightAware ADS-B
Fri 10:36:13 PM 33.4823 -80.9739 33° Northeast 467 537 35,000  Level FlightAware ADS-B
Fri 10:36:58 PM 33.5632 -80.9106 33° Northeast 466 536 35,000  Level FlightAware ADS-B
Fri 10:37:42 PM 33.6438 -80.8475 33° Northeast 472 543 35,000  Level FlightAware ADS-B
Fri 10:38:12 PM 33.6991 -80.8040 33° Northeast 472 543 35,000  Level FlightAware ADS-B
Fri 10:38:42 PM 33.7538 -80.7610 33° Northeast 467 537 35,000  Level FlightAware ADS-B
Fri 10:39:14 PM 33.8106 -80.7163 33° Northeast 464 534 35,000  Level FlightAware ADS-B
Fri 10:39:58 PM 33.8900 -80.6537 33° Northeast 466 536 35,000 -320 Level FlightAware ADS-B
Fri 10:40:29 PM 33.9464 -80.6092 33° Northeast 475 547 34,600 -947 Descending FlightAware ADS-B
Fri 10:41:14 PM 34.0287 -80.5440 34° Northeast 477 549 33,800 -1,026 Descending FlightAware ADS-B
Fri 10:41:45 PM 34.0855 -80.4988 34° Northeast 475 547 33,300 -984 Descending FlightAware ADS-B
Fri 10:42:15 PM 34.1404 -80.4552 34° Northeast 476 548 32,800 -960 Descending FlightAware ADS-B
Fri 10:43:00 PM 34.2230 -80.3894 34° Northeast 477 549 32,100 -960 Descending FlightAware ADS-B
Fri 10:43:30 PM 34.2796 -80.3441 34° Northeast 481 554 31,600 -984 Descending FlightAware ADS-B
Fri 10:44:01 PM 34.3365 -80.2987 34° Northeast 481 554 31,100 -1,018 Descending FlightAware ADS-B
Fri 10:45:22 PM 34.4811 -80.1847 34° Northeast 478 550 29,700 -989 Descending Jacksonville Center
Fri 10:47:03 PM 34.6631 -80.0361 34° Northeast 464 534 28,100 -926 Descending Washington Center
Fri 10:48:04 PM 34.7619 -79.9531 35° Northeast 470 541 27,200 -1,700 Descending Washington Center
Fri 10:49:03 PM 34.8739 -79.8628 33° Northeast 475 547 24,700 -1,600 Descending Washington Center
Fri 10:50:04 PM 34.9833 -79.7772 33° Northeast 475 547 24,000 -1,664 Descending Washington Center
Fri 10:51:02 PM 35.0842 -79.6936 34° Northeast 464 534 21,400 -2,874 Descending Washington Center
Fri 10:52:03 PM 35.1872 -79.6100 34° Northeast 452 520 18,300 -3,894 Descending Washington Center
Fri 10:52:36 PM 35.2469 -79.5672 30° Northeast 430 495 15,300 -4,623 Descending Washington Center
Fri 10:53:04 PM 35.2942 -79.5314 32° Northeast 430 495 13,600 -3,966 Descending Washington Center
Fri 10:53:35 PM 35.3517 -79.4961 27° Northeast 387 445 11,400 -2,690 Descending Washington Center
Fri 10:54:02 PM 35.3817 -79.4744 30° Northeast 398 458 11,000 -381 Descending Washington Center
Fri 10:54:38 PM 35.4328 -79.4361 31° Northeast 306 352 11,000 -98 Level Washington Center
Fri 10:55:03 PM 35.4647 -79.4172 26° Northeast 337 388 10,900 -842 Descending Washington Center
Fri 10:55:35 PM 35.5056 -79.3836 34° Northeast 295 339 10,200 -1,000 Descending Washington Center
Fri 10:56:03 PM 35.5208 -79.3614 50° Northeast 294 338 9,900 -1,619 Descending Washington Center
Fri 10:56:38 PM 35.5536 -79.3092 52° Northeast 280 322 8,500 -1,900 Descending Washington Center
Fri 10:57:03 PM 35.5736 -79.2769 53° Northeast 279 321 8,000 -1,475 Descending Washington Center
Fri 10:57:39 PM 35.5958 -79.2269 61° Northeast 273 314 7,000 -1,500 Descending Washington Center
Fri 10:58:03 PM 35.6072 -79.1942 67° East 273 314 6,500 -1,017 Descending Washington Center
Fri 10:58:38 PM 35.6172 -79.1411 77° East 245 282 6,000 -610 Descending Washington Center
Fri 10:59:02 PM 35.6328 -79.1136 55° Northeast 256 295 5,900 -774 Descending Washington Center
Fri 10:59:40 PM 35.6547 -79.0789 52° Northeast 222 255 5,200 -968 Descending Washington Center
Fri 11:00:04 PM 35.6656 -79.0639 48° Northeast 232 267 4,900 -1,279 Descending Washington Center
Fri 11:00:41 PM 35.6958 -79.0192 50° Northeast 221 254 3,900 -1,322 Descending Washington Center
Fri 11:01:03 PM 35.7067 -79.0069 42° Northeast 221 254 3,600 -787 Descending Washington Center
Fri 11:01:42 PM 35.7389 -78.9725 41° Northeast 204 235 3,100 -367 Descending Washington Center
Fri 11:02:41 PM 35.7758 -78.9253 46° Northeast 179 206 3,000 -500 Descending Washington Center
Fri 11:03:42 PM 35.8106 -78.8808 46° Northeast 174 200 2,100 -829 Descending Washington Center
Fri 11:04:44 PM 35.8406 -78.8461 43° Northeast 129 148 1,300 -744 Descending Washington Center
Fri 11:05:43 PM 35.8644 -78.8139 48° Northeast 125 144 600 -712 Descending Washington Center
Fri 11:07:00 PM 35.8667 -78.7833 51° Northeast  Level FlightAware Approximate

Login

Don't have an account? Register now (free) for customized features, flight alerts, and more!